sensor_id;sensor_type;location;lat;lon;timestamp;temperature;humidity
63017;DHT22;50274;45.640;11.756;2024-03-29T00:00:02;8.30;86.30
63017;DHT22;50274;45.640;11.756;2024-03-29T00:02:28;8.30;86.30
63017;DHT22;50274;45.640;11.756;2024-03-29T00:04:54;8.20;86.40
63017;DHT22;50274;45.640;11.756;2024-03-29T00:07:20;8.20;86.40
63017;DHT22;50274;45.640;11.756;2024-03-29T00:09:46;8.20;86.50
63017;DHT22;50274;45.640;11.756;2024-03-29T00:12:12;8.30;86.70
63017;DHT22;50274;45.640;11.756;2024-03-29T00:14:37;8.30;87.00
63017;DHT22;50274;45.640;11.756;2024-03-29T00:17:05;8.30;87.00
63017;DHT22;50274;45.640;11.756;2024-03-29T00:19:31;8.30;87.20
63017;DHT22;50274;45.640;11.756;2024-03-29T00:21:57;8.30;87.20
63017;DHT22;50274;45.640;11.756;2024-03-29T00:24:23;8.30;87.20
63017;DHT22;50274;45.640;11.756;2024-03-29T00:26:49;8.40;87.40
63017;DHT22;50274;45.640;11.756;2024-03-29T00:29:15;8.30;87.50
63017;DHT22;50274;45.640;11.756;2024-03-29T00:31:41;8.40;87.60
63017;DHT22;50274;45.640;11.756;2024-03-29T00:34:06;8.30;87.60
63017;DHT22;50274;45.640;11.756;2024-03-29T00:36:32;8.40;87.80
63017;DHT22;50274;45.640;11.756;2024-03-29T00:38:58;8.40;87.80
63017;DHT22;50274;45.640;11.756;2024-03-29T00:41:24;8.40;87.90
63017;DHT22;50274;45.640;11.756;2024-03-29T00:43:49;8.50;88.00
63017;DHT22;50274;45.640;11.756;2024-03-29T00:46:16;8.50;88.00
63017;DHT22;50274;45.640;11.756;2024-03-29T00:48:42;8.50;88.00
63017;DHT22;50274;45.640;11.756;2024-03-29T00:51:10;8.50;88.10
63017;DHT22;50274;45.640;11.756;2024-03-29T00:53:36;8.70;88.20
63017;DHT22;50274;45.640;11.756;2024-03-29T00:56:02;8.70;88.10
63017;DHT22;50274;45.640;11.756;2024-03-29T00:58:28;8.60;88.10
63017;DHT22;50274;45.640;11.756;2024-03-29T01:00:54;8.70;88.20
63017;DHT22;50274;45.640;11.756;2024-03-29T01:03:20;8.70;88.40
63017;DHT22;50274;45.640;11.756;2024-03-29T01:05:46;8.70;88.20
63017;DHT22;50274;45.640;11.756;2024-03-29T01:08:12;8.70;88.20
63017;DHT22;50274;45.640;11.756;2024-03-29T01:10:37;8.70;88.30
63017;DHT22;50274;45.640;11.756;2024-03-29T01:13:03;8.70;88.30
63017;DHT22;50274;45.640;11.756;2024-03-29T01:15:29;8.70;88.30
63017;DHT22;50274;45.640;11.756;2024-03-29T01:17:55;8.70;88.30
63017;DHT22;50274;45.640;11.756;2024-03-29T01:20:21;8.70;88.30
63017;DHT22;50274;45.640;11.756;2024-03-29T01:22:47;8.70;88.30
63017;DHT22;50274;45.640;11.756;2024-03-29T01:25:13;8.80;88.50
63017;DHT22;50274;45.640;11.756;2024-03-29T01:27:39;8.80;88.50
63017;DHT22;50274;45.640;11.756;2024-03-29T01:30:06;8.80;88.50
63017;DHT22;50274;45.640;11.756;2024-03-29T01:32:33;8.80;88.60
63017;DHT22;50274;45.640;11.756;2024-03-29T01:34:59;8.80;88.60
63017;DHT22;50274;45.640;11.756;2024-03-29T01:37:25;8.70;88.60
63017;DHT22;50274;45.640;11.756;2024-03-29T01:39:51;8.80;88.70
63017;DHT22;50274;45.640;11.756;2024-03-29T01:42:17;8.80;88.70
63017;DHT22;50274;45.640;11.756;2024-03-29T01:44:43;8.70;88.70
63017;DHT22;50274;45.640;11.756;2024-03-29T01:47:09;8.80;88.80
63017;DHT22;50274;45.640;11.756;2024-03-29T01:49:34;8.80;88.80
63017;DHT22;50274;45.640;11.756;2024-03-29T01:52:02;8.70;88.80
63017;DHT22;50274;45.640;11.756;2024-03-29T01:54:28;8.80;88.80
63017;DHT22;50274;45.640;11.756;2024-03-29T01:56:54;8.80;88.80
63017;DHT22;50274;45.640;11.756;2024-03-29T01:59:21;8.80;88.80
63017;DHT22;50274;45.640;11.756;2024-03-29T02:01:47;8.80;88.80
63017;DHT22;50274;45.640;11.756;2024-03-29T02:04:16;8.90;88.70
63017;DHT22;50274;45.640;11.756;2024-03-29T02:06:42;8.80;88.70
63017;DHT22;50274;45.640;11.756;2024-03-29T02:09:08;8.80;88.80
63017;DHT22;50274;45.640;11.756;2024-03-29T02:11:35;8.80;88.80
63017;DHT22;50274;45.640;11.756;2024-03-29T02:14:01;8.80;88.70
63017;DHT22;50274;45.640;11.756;2024-03-29T02:16:27;8.80;88.80
63017;DHT22;50274;45.640;11.756;2024-03-29T02:18:53;8.80;88.80
63017;DHT22;50274;45.640;11.756;2024-03-29T02:21:19;8.80;88.80
63017;DHT22;50274;45.640;11.756;2024-03-29T02:23:47;8.80;88.70
63017;DHT22;50274;45.640;11.756;2024-03-29T02:26:16;8.80;88.80
63017;DHT22;50274;45.640;11.756;2024-03-29T02:28:42;8.90;88.80
63017;DHT22;50274;45.640;11.756;2024-03-29T02:31:08;8.80;88.80
63017;DHT22;50274;45.640;11.756;2024-03-29T02:33:34;8.90;88.80
63017;DHT22;50274;45.640;11.756;2024-03-29T02:36:00;8.90;88.80
63017;DHT22;50274;45.640;11.756;2024-03-29T02:38:26;8.90;88.80
63017;DHT22;50274;45.640;11.756;2024-03-29T02:40:51;8.90;88.80
63017;DHT22;50274;45.640;11.756;2024-03-29T02:43:17;9.00;88.80
63017;DHT22;50274;45.640;11.756;2024-03-29T02:45:43;9.00;88.80
63017;DHT22;50274;45.640;11.756;2024-03-29T02:48:09;9.00;88.80
63017;DHT22;50274;45.640;11.756;2024-03-29T02:50:35;9.00;88.80
63017;DHT22;50274;45.640;11.756;2024-03-29T02:53:01;9.00;88.70
63017;DHT22;50274;45.640;11.756;2024-03-29T02:55:27;9.00;88.80
63017;DHT22;50274;45.640;11.756;2024-03-29T02:57:52;9.00;88.80
63017;DHT22;50274;45.640;11.756;2024-03-29T03:00:18;9.00;88.70
63017;DHT22;50274;45.640;11.756;2024-03-29T03:02:44;9.10;88.70
63017;DHT22;50274;45.640;11.756;2024-03-29T03:05:10;9.10;88.60
63017;DHT22;50274;45.640;11.756;2024-03-29T03:07:36;9.10;88.60
63017;DHT22;50274;45.640;11.756;2024-03-29T03:10:20;9.10;88.50
63017;DHT22;50274;45.640;11.756;2024-03-29T03:13:04;9.10;88.50
63017;DHT22;50274;45.640;11.756;2024-03-29T03:15:31;9.10;88.50
63017;DHT22;50274;45.640;11.756;2024-03-29T03:17:57;9.10;88.40
63017;DHT22;50274;45.640;11.756;2024-03-29T03:20:23;9.10;88.40
63017;DHT22;50274;45.640;11.756;2024-03-29T03:22:53;9.10;88.40
63017;DHT22;50274;45.640;11.756;2024-03-29T03:25:19;9.10;88.40
63017;DHT22;50274;45.640;11.756;2024-03-29T03:27:46;9.10;88.40
63017;DHT22;50274;45.640;11.756;2024-03-29T03:30:12;9.10;88.40
63017;DHT22;50274;45.640;11.756;2024-03-29T03:32:38;9.10;88.40
63017;DHT22;50274;45.640;11.756;2024-03-29T03:35:04;9.10;88.50
63017;DHT22;50274;45.640;11.756;2024-03-29T03:37:30;9.10;88.50
63017;DHT22;50274;45.640;11.756;2024-03-29T03:39:56;9.10;88.50
63017;DHT22;50274;45.640;11.756;2024-03-29T03:42:22;9.10;88.50
63017;DHT22;50274;45.640;11.756;2024-03-29T03:44:48;9.10;88.50
63017;DHT22;50274;45.640;11.756;2024-03-29T03:47:14;9.10;88.50
63017;DHT22;50274;45.640;11.756;2024-03-29T03:49:40;9.10;88.50
63017;DHT22;50274;45.640;11.756;2024-03-29T03:52:05;9.20;88.50
63017;DHT22;50274;45.640;11.756;2024-03-29T03:54:31;9.20;88.50
63017;DHT22;50274;45.640;11.756;2024-03-29T03:56:57;9.20;88.60
63017;DHT22;50274;45.640;11.756;2024-03-29T03:59:23;9.20;88.60
63017;DHT22;50274;45.640;11.756;2024-03-29T04:01:49;9.20;88.60
63017;DHT22;50274;45.640;11.756;2024-03-29T04:04:19;9.20;88.50
63017;DHT22;50274;45.640;11.756;2024-03-29T04:06:45;9.20;88.50
63017;DHT22;50274;45.640;11.756;2024-03-29T04:09:13;9.30;88.60
63017;DHT22;50274;45.640;11.756;2024-03-29T04:11:41;9.30;88.50
63017;DHT22;50274;45.640;11.756;2024-03-29T04:14:07;9.30;88.40
63017;DHT22;50274;45.640;11.756;2024-03-29T04:16:33;9.30;88.40
63017;DHT22;50274;45.640;11.756;2024-03-29T04:18:59;9.20;88.40
63017;DHT22;50274;45.640;11.756;2024-03-29T04:21:25;9.20;88.40
63017;DHT22;50274;45.640;11.756;2024-03-29T04:23:51;9.30;88.40
63017;DHT22;50274;45.640;11.756;2024-03-29T04:26:17;9.30;88.40
63017;DHT22;50274;45.640;11.756;2024-03-29T04:28:42;9.30;88.40
63017;DHT22;50274;45.640;11.756;2024-03-29T04:31:08;9.30;88.40
63017;DHT22;50274;45.640;11.756;2024-03-29T04:33:34;9.30;88.40
63017;DHT22;50274;45.640;11.756;2024-03-29T04:36:02;9.20;88.30
63017;DHT22;50274;45.640;11.756;2024-03-29T04:38:30;9.30;88.30
63017;DHT22;50274;45.640;11.756;2024-03-29T04:40:57;9.30;88.40
63017;DHT22;50274;45.640;11.756;2024-03-29T04:43:24;9.30;88.40
63017;DHT22;50274;45.640;11.756;2024-03-29T04:46:00;9.30;88.40
63017;DHT22;50274;45.640;11.756;2024-03-29T04:48:26;9.30;88.30
63017;DHT22;50274;45.640;11.756;2024-03-29T04:50:52;9.30;88.30
63017;DHT22;50274;45.640;11.756;2024-03-29T04:53:20;9.30;88.20
63017;DHT22;50274;45.640;11.756;2024-03-29T04:55:48;9.30;88.10
63017;DHT22;50274;45.640;11.756;2024-03-29T04:58:18;9.30;88.20
63017;DHT22;50274;45.640;11.756;2024-03-29T05:00:44;9.30;88.00
63017;DHT22;50274;45.640;11.756;2024-03-29T05:03:10;9.20;88.00
63017;DHT22;50274;45.640;11.756;2024-03-29T05:05:35;9.20;88.10
63017;DHT22;50274;45.640;11.756;2024-03-29T05:08:01;9.20;88.10
63017;DHT22;50274;45.640;11.756;2024-03-29T05:10:27;9.20;88.10
63017;DHT22;50274;45.640;11.756;2024-03-29T05:12:53;9.20;88.10
63017;DHT22;50274;45.640;11.756;2024-03-29T05:15:19;9.30;88.00
63017;DHT22;50274;45.640;11.756;2024-03-29T05:17:45;9.20;88.00
63017;DHT22;50274;45.640;11.756;2024-03-29T05:20:11;9.20;87.90
63017;DHT22;50274;45.640;11.756;2024-03-29T05:22:37;9.20;88.00
63017;DHT22;50274;45.640;11.756;2024-03-29T05:25:03;9.20;88.00
63017;DHT22;50274;45.640;11.756;2024-03-29T05:27:29;9.20;88.00
63017;DHT22;50274;45.640;11.756;2024-03-29T05:29:55;9.20;87.90
63017;DHT22;50274;45.640;11.756;2024-03-29T05:32:21;9.20;87.90
63017;DHT22;50274;45.640;11.756;2024-03-29T05:34:47;9.20;87.90
63017;DHT22;50274;45.640;11.756;2024-03-29T05:37:13;9.20;87.90
63017;DHT22;50274;45.640;11.756;2024-03-29T05:39:41;9.20;87.90
63017;DHT22;50274;45.640;11.756;2024-03-29T05:42:07;9.20;87.90
63017;DHT22;50274;45.640;11.756;2024-03-29T05:44:34;9.20;87.90
63017;DHT22;50274;45.640;11.756;2024-03-29T05:47:00;9.20;87.90
63017;DHT22;50274;45.640;11.756;2024-03-29T05:49:26;9.20;87.90
63017;DHT22;50274;45.640;11.756;2024-03-29T05:51:52;9.20;87.90
63017;DHT22;50274;45.640;11.756;2024-03-29T05:54:18;9.20;87.90
63017;DHT22;50274;45.640;11.756;2024-03-29T05:56:43;9.20;87.90
63017;DHT22;50274;45.640;11.756;2024-03-29T05:59:09;9.30;87.90
63017;DHT22;50274;45.640;11.756;2024-03-29T06:01:35;9.30;87.90
63017;DHT22;50274;45.640;11.756;2024-03-29T06:04:01;9.30;87.90
63017;DHT22;50274;45.640;11.756;2024-03-29T06:06:32;9.30;87.90
63017;DHT22;50274;45.640;11.756;2024-03-29T06:08:58;9.30;87.90
63017;DHT22;50274;45.640;11.756;2024-03-29T06:11:24;9.30;87.90
63017;DHT22;50274;45.640;11.756;2024-03-29T06:13:49;9.30;87.90
63017;DHT22;50274;45.640;11.756;2024-03-29T06:16:23;9.30;87.90
63017;DHT22;50274;45.640;11.756;2024-03-29T06:19:07;9.30;88.00
63017;DHT22;50274;45.640;11.756;2024-03-29T06:21:33;9.30;88.00
63017;DHT22;50274;45.640;11.756;2024-03-29T06:24:10;9.30;87.90
63017;DHT22;50274;45.640;11.756;2024-03-29T06:26:40;9.30;87.90
63017;DHT22;50274;45.640;11.756;2024-03-29T06:29:07;9.30;87.90
63017;DHT22;50274;45.640;11.756;2024-03-29T06:31:36;9.40;87.90
63017;DHT22;50274;45.640;11.756;2024-03-29T06:34:02;9.40;87.80
63017;DHT22;50274;45.640;11.756;2024-03-29T06:36:28;9.40;87.80
63017;DHT22;50274;45.640;11.756;2024-03-29T06:38:56;9.40;87.80
63017;DHT22;50274;45.640;11.756;2024-03-29T06:41:22;9.40;87.70
63017;DHT22;50274;45.640;11.756;2024-03-29T06:43:47;9.40;87.70
63017;DHT22;50274;45.640;11.756;2024-03-29T06:46:14;9.40;87.80
63017;DHT22;50274;45.640;11.756;2024-03-29T06:48:40;9.40;87.80
63017;DHT22;50274;45.640;11.756;2024-03-29T06:51:06;9.40;87.80
63017;DHT22;50274;45.640;11.756;2024-03-29T06:53:33;9.40;87.80
63017;DHT22;50274;45.640;11.756;2024-03-29T06:56:00;9.40;87.90
63017;DHT22;50274;45.640;11.756;2024-03-29T06:58:29;9.40;87.90
63017;DHT22;50274;45.640;11.756;2024-03-29T07:00:55;9.40;87.80
63017;DHT22;50274;45.640;11.756;2024-03-29T07:03:21;9.50;88.00
63017;DHT22;50274;45.640;11.756;2024-03-29T07:05:47;9.50;88.00
63017;DHT22;50274;45.640;11.756;2024-03-29T07:08:13;9.40;87.90
63017;DHT22;50274;45.640;11.756;2024-03-29T07:10:39;9.40;87.90
63017;DHT22;50274;45.640;11.756;2024-03-29T07:13:08;9.50;88.00
63017;DHT22;50274;45.640;11.756;2024-03-29T07:15:35;9.40;88.00
63017;DHT22;50274;45.640;11.756;2024-03-29T07:18:01;9.50;88.00
63017;DHT22;50274;45.640;11.756;2024-03-29T07:20:30;9.50;88.10
63017;DHT22;50274;45.640;11.756;2024-03-29T07:22:56;9.50;88.00
63017;DHT22;50274;45.640;11.756;2024-03-29T07:25:22;9.50;88.00
63017;DHT22;50274;45.640;11.756;2024-03-29T07:27:48;9.50;88.10
63017;DHT22;50274;45.640;11.756;2024-03-29T07:30:16;9.50;88.00
63017;DHT22;50274;45.640;11.756;2024-03-29T07:32:41;9.50;88.10
63017;DHT22;50274;45.640;11.756;2024-03-29T07:35:07;9.50;88.00
63017;DHT22;50274;45.640;11.756;2024-03-29T07:37:33;9.50;88.00
63017;DHT22;50274;45.640;11.756;2024-03-29T07:39:59;9.50;88.00
63017;DHT22;50274;45.640;11.756;2024-03-29T07:42:25;9.50;87.90
63017;DHT22;50274;45.640;11.756;2024-03-29T07:44:51;9.50;88.10
63017;DHT22;50274;45.640;11.756;2024-03-29T07:47:18;9.60;88.00
63017;DHT22;50274;45.640;11.756;2024-03-29T07:49:44;9.60;88.00
63017;DHT22;50274;45.640;11.756;2024-03-29T07:52:11;9.60;88.10
63017;DHT22;50274;45.640;11.756;2024-03-29T07:54:37;9.60;87.90
63017;DHT22;50274;45.640;11.756;2024-03-29T07:57:04;9.70;88.00
63017;DHT22;50274;45.640;11.756;2024-03-29T07:59:30;9.70;88.10
63017;DHT22;50274;45.640;11.756;2024-03-29T08:01:55;9.70;87.90
63017;DHT22;50274;45.640;11.756;2024-03-29T08:04:23;9.70;87.90
63017;DHT22;50274;45.640;11.756;2024-03-29T08:06:52;9.80;88.00
63017;DHT22;50274;45.640;11.756;2024-03-29T08:09:17;9.80;88.00
63017;DHT22;50274;45.640;11.756;2024-03-29T08:11:43;9.90;87.80
63017;DHT22;50274;45.640;11.756;2024-03-29T08:14:09;10.00;87.90
63017;DHT22;50274;45.640;11.756;2024-03-29T08:16:35;10.00;87.90
63017;DHT22;50274;45.640;11.756;2024-03-29T08:19:01;10.00;88.00
63017;DHT22;50274;45.640;11.756;2024-03-29T08:21:27;10.10;87.80
63017;DHT22;50274;45.640;11.756;2024-03-29T08:23:53;10.10;87.80
63017;DHT22;50274;45.640;11.756;2024-03-29T08:26:21;10.20;87.80
63017;DHT22;50274;45.640;11.756;2024-03-29T08:28:47;10.20;87.70
63017;DHT22;50274;45.640;11.756;2024-03-29T08:31:13;10.30;87.80
63017;DHT22;50274;45.640;11.756;2024-03-29T08:33:39;10.30;87.70
63017;DHT22;50274;45.640;11.756;2024-03-29T08:36:05;10.30;87.70
63017;DHT22;50274;45.640;11.756;2024-03-29T08:38:32;10.30;87.70
63017;DHT22;50274;45.640;11.756;2024-03-29T08:40:58;10.30;87.70
63017;DHT22;50274;45.640;11.756;2024-03-29T08:43:24;10.40;87.70
63017;DHT22;50274;45.640;11.756;2024-03-29T08:45:49;10.40;87.70
63017;DHT22;50274;45.640;11.756;2024-03-29T08:48:15;10.40;87.70
63017;DHT22;50274;45.640;11.756;2024-03-29T08:50:41;10.40;87.70
63017;DHT22;50274;45.640;11.756;2024-03-29T08:53:07;10.30;87.70
63017;DHT22;50274;45.640;11.756;2024-03-29T08:55:34;10.30;87.70
63017;DHT22;50274;45.640;11.756;2024-03-29T08:58:00;10.40;87.70
63017;DHT22;50274;45.640;11.756;2024-03-29T09:00:28;10.40;87.60
63017;DHT22;50274;45.640;11.756;2024-03-29T09:02:54;10.40;87.70
63017;DHT22;50274;45.640;11.756;2024-03-29T09:05:22;10.40;87.60
63017;DHT22;50274;45.640;11.756;2024-03-29T09:07:49;10.40;87.60
63017;DHT22;50274;45.640;11.756;2024-03-29T09:10:15;10.40;87.50
63017;DHT22;50274;45.640;11.756;2024-03-29T09:12:41;10.40;87.40
63017;DHT22;50274;45.640;11.756;2024-03-29T09:15:07;10.50;87.30
63017;DHT22;50274;45.640;11.756;2024-03-29T09:17:39;10.50;87.10
63017;DHT22;50274;45.640;11.756;2024-03-29T09:20:07;10.50;86.90
63017;DHT22;50274;45.640;11.756;2024-03-29T09:22:34;10.50;86.50
63017;DHT22;50274;45.640;11.756;2024-03-29T09:25:01;10.60;86.50
63017;DHT22;50274;45.640;11.756;2024-03-29T09:27:27;10.60;86.30
63017;DHT22;50274;45.640;11.756;2024-03-29T09:29:55;10.70;86.40
63017;DHT22;50274;45.640;11.756;2024-03-29T09:32:21;10.80;86.30
63017;DHT22;50274;45.640;11.756;2024-03-29T09:34:48;10.80;86.30
63017;DHT22;50274;45.640;11.756;2024-03-29T09:37:14;10.90;86.10
63017;DHT22;50274;45.640;11.756;2024-03-29T09:39:41;10.90;86.10
63017;DHT22;50274;45.640;11.756;2024-03-29T09:42:07;11.00;86.00
63017;DHT22;50274;45.640;11.756;2024-03-29T09:44:35;11.00;85.90
63017;DHT22;50274;45.640;11.756;2024-03-29T09:47:05;11.00;85.90
63017;DHT22;50274;45.640;11.756;2024-03-29T09:49:32;11.10;85.80
63017;DHT22;50274;45.640;11.756;2024-03-29T09:52:03;11.10;85.80
63017;DHT22;50274;45.640;11.756;2024-03-29T09:54:30;11.20;85.80
63017;DHT22;50274;45.640;11.756;2024-03-29T09:56:59;11.30;85.60
63017;DHT22;50274;45.640;11.756;2024-03-29T09:59:25;11.40;85.80
63017;DHT22;50274;45.640;11.756;2024-03-29T10:01:54;11.50;85.40
63017;DHT22;50274;45.640;11.756;2024-03-29T10:04:22;11.60;85.40
63017;DHT22;50274;45.640;11.756;2024-03-29T10:06:50;11.70;85.00
63017;DHT22;50274;45.640;11.756;2024-03-29T10:09:19;11.90;84.90
63017;DHT22;50274;45.640;11.756;2024-03-29T10:11:47;12.00;84.30
63017;DHT22;50274;45.640;11.756;2024-03-29T10:14:13;12.10;84.20
63017;DHT22;50274;45.640;11.756;2024-03-29T10:16:39;12.30;83.90
63017;DHT22;50274;45.640;11.756;2024-03-29T10:19:07;12.30;83.70
63017;DHT22;50274;45.640;11.756;2024-03-29T10:21:33;12.50;83.60
63017;DHT22;50274;45.640;11.756;2024-03-29T10:24:15;12.60;83.30
63017;DHT22;50274;45.640;11.756;2024-03-29T10:26:46;12.80;82.80
63017;DHT22;50274;45.640;11.756;2024-03-29T10:29:13;13.00;82.50
63017;DHT22;50274;45.640;11.756;2024-03-29T10:31:39;13.10;82.20
63017;DHT22;50274;45.640;11.756;2024-03-29T10:34:06;13.10;81.70
63017;DHT22;50274;45.640;11.756;2024-03-29T10:36:32;13.20;81.80
63017;DHT22;50274;45.640;11.756;2024-03-29T10:39:02;13.20;81.70
63017;DHT22;50274;45.640;11.756;2024-03-29T10:41:40;13.30;81.70
63017;DHT22;50274;45.640;11.756;2024-03-29T10:44:09;13.40;81.60
63017;DHT22;50274;45.640;11.756;2024-03-29T10:46:37;13.50;81.30
63017;DHT22;50274;45.640;11.756;2024-03-29T10:49:07;13.70;81.00
63017;DHT22;50274;45.640;11.756;2024-03-29T10:51:41;13.80;80.60
63017;DHT22;50274;45.640;11.756;2024-03-29T10:54:11;14.00;80.40
63017;DHT22;50274;45.640;11.756;2024-03-29T10:56:38;14.10;80.00
63017;DHT22;50274;45.640;11.756;2024-03-29T10:59:35;14.30;79.70
63017;DHT22;50274;45.640;11.756;2024-03-29T11:02:12;14.50;78.80
63017;DHT22;50274;45.640;11.756;2024-03-29T11:04:43;14.80;76.70
63017;DHT22;50274;45.640;11.756;2024-03-29T11:07:15;15.00;77.50
63017;DHT22;50274;45.640;11.756;2024-03-29T11:09:43;15.00;76.60
63017;DHT22;50274;45.640;11.756;2024-03-29T11:12:11;15.00;76.70
63017;DHT22;50274;45.640;11.756;2024-03-29T11:14:46;15.10;76.20
63017;DHT22;50274;45.640;11.756;2024-03-29T11:17:14;15.00;76.10
63017;DHT22;50274;45.640;11.756;2024-03-29T11:19:40;15.00;76.40
63017;DHT22;50274;45.640;11.756;2024-03-29T11:22:07;15.00;75.80
63017;DHT22;50274;45.640;11.756;2024-03-29T11:24:33;15.00;75.50
63017;DHT22;50274;45.640;11.756;2024-03-29T11:27:09;15.00;75.30
63017;DHT22;50274;45.640;11.756;2024-03-29T11:29:36;15.20;75.50
63017;DHT22;50274;45.640;11.756;2024-03-29T11:32:07;15.40;75.10
63017;DHT22;50274;45.640;11.756;2024-03-29T11:34:34;15.60;73.70
63017;DHT22;50274;45.640;11.756;2024-03-29T11:37:09;16.00;73.30
63017;DHT22;50274;45.640;11.756;2024-03-29T11:39:36;16.30;72.80
63017;DHT22;50274;45.640;11.756;2024-03-29T11:42:02;16.60;71.90
63017;DHT22;50274;45.640;11.756;2024-03-29T11:44:28;16.90;70.90
63017;DHT22;50274;45.640;11.756;2024-03-29T11:46:58;17.20;70.20
63017;DHT22;50274;45.640;11.756;2024-03-29T11:49:25;17.50;69.80
63017;DHT22;50274;45.640;11.756;2024-03-29T11:52:01;17.70;67.60
63017;DHT22;50274;45.640;11.756;2024-03-29T11:54:27;17.90;68.30
63017;DHT22;50274;45.640;11.756;2024-03-29T11:56:52;18.10;67.50
63017;DHT22;50274;45.640;11.756;2024-03-29T11:59:21;18.30;67.20
63017;DHT22;50274;45.640;11.756;2024-03-29T12:01:47;18.40;67.10
63017;DHT22;50274;45.640;11.756;2024-03-29T12:04:20;18.60;66.40
63017;DHT22;50274;45.640;11.756;2024-03-29T12:06:46;18.80;66.00
63017;DHT22;50274;45.640;11.756;2024-03-29T12:09:12;19.00;64.10
63017;DHT22;50274;45.640;11.756;2024-03-29T12:11:38;19.00;64.40
63017;DHT22;50274;45.640;11.756;2024-03-29T12:14:12;18.80;64.30
63017;DHT22;50274;45.640;11.756;2024-03-29T12:16:45;18.60;64.80
63017;DHT22;50274;45.640;11.756;2024-03-29T12:19:31;18.50;65.00
63017;DHT22;50274;45.640;11.756;2024-03-29T12:22:02;18.30;64.80
63017;DHT22;50274;45.640;11.756;2024-03-29T12:24:28;18.30;66.00
63017;DHT22;50274;45.640;11.756;2024-03-29T12:26:55;18.20;65.40
63017;DHT22;50274;45.640;11.756;2024-03-29T12:29:21;18.30;65.70
63017;DHT22;50274;45.640;11.756;2024-03-29T12:31:59;18.50;65.90
63017;DHT22;50274;45.640;11.756;2024-03-29T12:34:25;18.70;64.70
63017;DHT22;50274;45.640;11.756;2024-03-29T12:36:51;18.80;64.40
63017;DHT22;50274;45.640;11.756;2024-03-29T12:39:17;18.70;63.60
63017;DHT22;50274;45.640;11.756;2024-03-29T12:41:43;18.60;64.70
63017;DHT22;50274;45.640;11.756;2024-03-29T12:44:11;18.80;64.80
63017;DHT22;50274;45.640;11.756;2024-03-29T12:46:37;19.00;64.50
63017;DHT22;50274;45.640;11.756;2024-03-29T12:49:03;19.20;64.60
63017;DHT22;50274;45.640;11.756;2024-03-29T12:51:30;19.40;64.10
63017;DHT22;50274;45.640;11.756;2024-03-29T12:53:56;19.60;63.40
63017;DHT22;50274;45.640;11.756;2024-03-29T12:56:29;19.80;63.20
63017;DHT22;50274;45.640;11.756;2024-03-29T12:58:55;19.90;62.20
63017;DHT22;50274;45.640;11.756;2024-03-29T13:01:21;19.90;61.80
63017;DHT22;50274;45.640;11.756;2024-03-29T13:03:48;19.90;62.20
63017;DHT22;50274;45.640;11.756;2024-03-29T13:06:14;20.10;62.00
63017;DHT22;50274;45.640;11.756;2024-03-29T13:08:40;20.10;61.60
63017;DHT22;50274;45.640;11.756;2024-03-29T13:11:06;20.10;61.60
63017;DHT22;50274;45.640;11.756;2024-03-29T13:13:32;20.10;60.70
63017;DHT22;50274;45.640;11.756;2024-03-29T13:15:58;20.10;61.40
63017;DHT22;50274;45.640;11.756;2024-03-29T13:18:25;20.10;61.60
63017;DHT22;50274;45.640;11.756;2024-03-29T13:20:51;20.20;61.50
63017;DHT22;50274;45.640;11.756;2024-03-29T13:23:17;20.20;60.90
63017;DHT22;50274;45.640;11.756;2024-03-29T13:25:43;20.30;60.90
63017;DHT22;50274;45.640;11.756;2024-03-29T13:28:09;20.40;60.60
63017;DHT22;50274;45.640;11.756;2024-03-29T13:30:36;20.40;60.60
63017;DHT22;50274;45.640;11.756;2024-03-29T13:33:08;20.40;61.20
63017;DHT22;50274;45.640;11.756;2024-03-29T13:35:36;20.50;61.40
63017;DHT22;50274;45.640;11.756;2024-03-29T13:38:02;20.40;59.80
63017;DHT22;50274;45.640;11.756;2024-03-29T13:40:28;20.30;60.40
63017;DHT22;50274;45.640;11.756;2024-03-29T13:42:54;20.30;60.50
63017;DHT22;50274;45.640;11.756;2024-03-29T13:45:20;20.30;59.90
63017;DHT22;50274;45.640;11.756;2024-03-29T13:47:46;20.20;60.00
63017;DHT22;50274;45.640;11.756;2024-03-29T13:50:13;20.20;60.10
63017;DHT22;50274;45.640;11.756;2024-03-29T13:52:41;20.20;60.50
63017;DHT22;50274;45.640;11.756;2024-03-29T13:55:07;20.10;60.50
63017;DHT22;50274;45.640;11.756;2024-03-29T13:57:33;20.00;60.40
63017;DHT22;50274;45.640;11.756;2024-03-29T14:00:00;20.00;60.70
63017;DHT22;50274;45.640;11.756;2024-03-29T14:02:26;19.80;60.80
63017;DHT22;50274;45.640;11.756;2024-03-29T14:04:58;19.80;61.00
63017;DHT22;50274;45.640;11.756;2024-03-29T14:07:26;19.70;61.50
63017;DHT22;50274;45.640;11.756;2024-03-29T14:09:52;19.70;61.20
63017;DHT22;50274;45.640;11.756;2024-03-29T14:12:20;19.60;61.70
63017;DHT22;50274;45.640;11.756;2024-03-29T14:14:47;19.50;62.00
63017;DHT22;50274;45.640;11.756;2024-03-29T14:17:16;19.30;62.60
63017;DHT22;50274;45.640;11.756;2024-03-29T14:19:42;19.10;62.60
63017;DHT22;50274;45.640;11.756;2024-03-29T14:22:09;19.00;62.90
63017;DHT22;50274;45.640;11.756;2024-03-29T14:24:35;18.80;63.00
63017;DHT22;50274;45.640;11.756;2024-03-29T14:27:02;18.60;63.10
63017;DHT22;50274;45.640;11.756;2024-03-29T14:29:32;18.50;63.40
63017;DHT22;50274;45.640;11.756;2024-03-29T14:31:58;18.30;63.70
63017;DHT22;50274;45.640;11.756;2024-03-29T14:34:24;18.20;64.40
63017;DHT22;50274;45.640;11.756;2024-03-29T14:36:51;18.10;64.80
63017;DHT22;50274;45.640;11.756;2024-03-29T14:39:17;18.00;65.00
63017;DHT22;50274;45.640;11.756;2024-03-29T14:41:49;18.00;65.30
63017;DHT22;50274;45.640;11.756;2024-03-29T14:44:17;17.90;65.60
63017;DHT22;50274;45.640;11.756;2024-03-29T14:46:44;17.80;65.90
63017;DHT22;50274;45.640;11.756;2024-03-29T14:49:10;17.80;66.10
63017;DHT22;50274;45.640;11.756;2024-03-29T14:51:38;17.70;66.30
63017;DHT22;50274;45.640;11.756;2024-03-29T14:54:04;17.70;66.70
63017;DHT22;50274;45.640;11.756;2024-03-29T14:56:31;17.70;66.70
63017;DHT22;50274;45.640;11.756;2024-03-29T14:59:01;17.70;66.80
63017;DHT22;50274;45.640;11.756;2024-03-29T15:01:27;17.70;67.00
63017;DHT22;50274;45.640;11.756;2024-03-29T15:03:53;17.70;67.20
63017;DHT22;50274;45.640;11.756;2024-03-29T15:06:20;17.70;67.50
63017;DHT22;50274;45.640;11.756;2024-03-29T15:08:48;17.70;67.60
63017;DHT22;50274;45.640;11.756;2024-03-29T15:11:14;17.70;67.50
63017;DHT22;50274;45.640;11.756;2024-03-29T15:13:40;17.70;67.50
63017;DHT22;50274;45.640;11.756;2024-03-29T15:16:06;17.60;68.00
63017;DHT22;50274;45.640;11.756;2024-03-29T15:18:32;17.60;68.50
63017;DHT22;50274;45.640;11.756;2024-03-29T15:20:59;17.50;69.00
63017;DHT22;50274;45.640;11.756;2024-03-29T15:23:26;17.50;69.10